sensor_id;sensor_type;location;lat;lon;timestamp;P1;durP1;ratioP1;P2;durP2;ratioP2
26774;SDS011;14362;51.902;7.626;2022-12-18T00:03:52;62.60;;;29.40;;
26774;SDS011;14362;51.902;7.626;2022-12-18T00:07:55;63.37;;;28.13;;
26774;SDS011;14362;51.902;7.626;2022-12-18T00:11:56;70.05;;;30.02;;
26774;SDS011;14362;51.902;7.626;2022-12-18T00:16:01;56.22;;;26.60;;
26774;SDS011;14362;51.902;7.626;2022-12-18T00:20:04;60.30;;;28.90;;
26774;SDS011;14362;51.902;7.626;2022-12-18T00:24:07;71.27;;;29.80;;
26774;SDS011;14362;51.902;7.626;2022-12-18T00:28:08;60.50;;;28.15;;
26774;SDS011;14362;51.902;7.626;2022-12-18T00:32:10;75.00;;;29.02;;
26774;SDS011;14362;51.902;7.626;2022-12-18T00:36:13;63.25;;;28.10;;
26774;SDS011;14362;51.902;7.626;2022-12-18T00:40:17;65.75;;;29.13;;
26774;SDS011;14362;51.902;7.626;2022-12-18T00:44:18;64.78;;;28.65;;
26774;SDS011;14362;51.902;7.626;2022-12-18T00:48:20;69.85;;;28.58;;
26774;SDS011;14362;51.902;7.626;2022-12-18T00:52:23;57.20;;;25.92;;
26774;SDS011;14362;51.902;7.626;2022-12-18T00:56:24;61.05;;;26.60;;
26774;SDS011;14362;51.902;7.626;2022-12-18T01:00:26;64.75;;;28.17;;
26774;SDS011;14362;51.902;7.626;2022-12-18T01:04:31;61.92;;;26.48;;
26774;SDS011;14362;51.902;7.626;2022-12-18T01:08:34;60.40;;;27.38;;
26774;SDS011;14362;51.902;7.626;2022-12-18T01:12:36;66.90;;;25.92;;
26774;SDS011;14362;51.902;7.626;2022-12-18T01:16:37;64.55;;;27.30;;
26774;SDS011;14362;51.902;7.626;2022-12-18T01:20:39;52.38;;;25.52;;
26774;SDS011;14362;51.902;7.626;2022-12-18T01:24:41;57.45;;;26.42;;
26774;SDS011;14362;51.902;7.626;2022-12-18T01:28:43;53.67;;;25.38;;
26774;SDS011;14362;51.902;7.626;2022-12-18T01:32:45;60.60;;;26.67;;
26774;SDS011;14362;51.902;7.626;2022-12-18T01:36:46;60.30;;;25.52;;
26774;SDS011;14362;51.902;7.626;2022-12-18T01:40:49;63.95;;;25.55;;
26774;SDS011;14362;51.902;7.626;2022-12-18T01:44:53;66.75;;;27.23;;
26774;SDS011;14362;51.902;7.626;2022-12-18T01:49:04;53.15;;;24.35;;
26774;SDS011;14362;51.902;7.626;2022-12-18T01:53:06;56.85;;;24.15;;
26774;SDS011;14362;51.902;7.626;2022-12-18T01:57:13;62.65;;;26.27;;
26774;SDS011;14362;51.902;7.626;2022-12-18T02:01:15;59.45;;;25.27;;
26774;SDS011;14362;51.902;7.626;2022-12-18T02:05:17;55.92;;;25.33;;
26774;SDS011;14362;51.902;7.626;2022-12-18T02:09:25;57.20;;;23.55;;
26774;SDS011;14362;51.902;7.626;2022-12-18T02:13:38;50.88;;;24.77;;
26774;SDS011;14362;51.902;7.626;2022-12-18T02:17:48;65.63;;;27.42;;
26774;SDS011;14362;51.902;7.626;2022-12-18T02:21:55;50.72;;;24.25;;
26774;SDS011;14362;51.902;7.626;2022-12-18T02:26:08;54.15;;;24.90;;
26774;SDS011;14362;51.902;7.626;2022-12-18T02:30:16;68.82;;;24.65;;
26774;SDS011;14362;51.902;7.626;2022-12-18T02:34:19;56.80;;;23.48;;
26774;SDS011;14362;51.902;7.626;2022-12-18T02:38:26;53.00;;;24.15;;
26774;SDS011;14362;51.902;7.626;2022-12-18T02:42:31;52.80;;;23.57;;
26774;SDS011;14362;51.902;7.626;2022-12-18T02:46:34;51.78;;;23.60;;
26774;SDS011;14362;51.902;7.626;2022-12-18T02:50:41;47.03;;;21.58;;
26774;SDS011;14362;51.902;7.626;2022-12-18T02:54:50;51.33;;;24.52;;
26774;SDS011;14362;51.902;7.626;2022-12-18T02:59:00;51.83;;;22.73;;
26774;SDS011;14362;51.902;7.626;2022-12-18T03:03:06;52.83;;;23.85;;
26774;SDS011;14362;51.902;7.626;2022-12-18T03:07:16;53.10;;;24.48;;
26774;SDS011;14362;51.902;7.626;2022-12-18T03:11:21;42.75;;;19.98;;
26774;SDS011;14362;51.902;7.626;2022-12-18T03:15:45;51.47;;;24.15;;
26774;SDS011;14362;51.902;7.626;2022-12-18T03:19:50;41.72;;;21.75;;
26774;SDS011;14362;51.902;7.626;2022-12-18T03:23:54;52.85;;;22.85;;
26774;SDS011;14362;51.902;7.626;2022-12-18T03:27:57;53.47;;;24.27;;
26774;SDS011;14362;51.902;7.626;2022-12-18T03:36:06;51.17;;;21.33;;
26774;SDS011;14362;51.902;7.626;2022-12-18T03:40:08;48.00;;;22.25;;
26774;SDS011;14362;51.902;7.626;2022-12-18T03:44:11;46.97;;;22.52;;
26774;SDS011;14362;51.902;7.626;2022-12-18T03:48:19;43.80;;;21.67;;
26774;SDS011;14362;51.902;7.626;2022-12-18T03:52:29;46.72;;;21.95;;
26774;SDS011;14362;51.902;7.626;2022-12-18T03:56:36;44.30;;;21.10;;
26774;SDS011;14362;51.902;7.626;2022-12-18T04:00:42;51.55;;;21.83;;
26774;SDS011;14362;51.902;7.626;2022-12-18T04:04:45;56.17;;;20.92;;
26774;SDS011;14362;51.902;7.626;2022-12-18T04:08:48;40.42;;;21.25;;
26774;SDS011;14362;51.902;7.626;2022-12-18T04:12:50;44.50;;;19.45;;
26774;SDS011;14362;51.902;7.626;2022-12-18T04:16:51;48.70;;;20.63;;
26774;SDS011;14362;51.902;7.626;2022-12-18T04:20:54;42.17;;;20.58;;
26774;SDS011;14362;51.902;7.626;2022-12-18T04:24:55;46.25;;;20.85;;
26774;SDS011;14362;51.902;7.626;2022-12-18T04:28:57;42.92;;;19.75;;
26774;SDS011;14362;51.902;7.626;2022-12-18T04:32:58;41.25;;;19.63;;
26774;SDS011;14362;51.902;7.626;2022-12-18T04:37:01;36.95;;;18.10;;
26774;SDS011;14362;51.902;7.626;2022-12-18T04:41:02;42.30;;;17.80;;
26774;SDS011;14362;51.902;7.626;2022-12-18T04:45:04;36.97;;;16.73;;
26774;SDS011;14362;51.902;7.626;2022-12-18T04:49:07;33.47;;;15.48;;
26774;SDS011;14362;51.902;7.626;2022-12-18T04:53:11;34.65;;;15.50;;
26774;SDS011;14362;51.902;7.626;2022-12-18T04:57:13;34.85;;;16.95;;
26774;SDS011;14362;51.902;7.626;2022-12-18T05:01:15;37.20;;;17.58;;
26774;SDS011;14362;51.902;7.626;2022-12-18T05:05:17;40.30;;;18.13;;
26774;SDS011;14362;51.902;7.626;2022-12-18T05:09:20;35.50;;;17.25;;
26774;SDS011;14362;51.902;7.626;2022-12-18T05:13:22;39.53;;;18.20;;
26774;SDS011;14362;51.902;7.626;2022-12-18T05:17:23;36.83;;;17.83;;
26774;SDS011;14362;51.902;7.626;2022-12-18T05:21:25;42.50;;;18.70;;
26774;SDS011;14362;51.902;7.626;2022-12-18T05:25:27;35.25;;;16.38;;
26774;SDS011;14362;51.902;7.626;2022-12-18T05:29:29;30.80;;;13.35;;
26774;SDS011;14362;51.902;7.626;2022-12-18T05:33:31;29.45;;;14.00;;
26774;SDS011;14362;51.902;7.626;2022-12-18T05:37:34;30.00;;;13.88;;
26774;SDS011;14362;51.902;7.626;2022-12-18T05:41:37;33.15;;;15.82;;
26774;SDS011;14362;51.902;7.626;2022-12-18T05:45:38;29.33;;;13.70;;
26774;SDS011;14362;51.902;7.626;2022-12-18T05:49:40;29.85;;;14.30;;
26774;SDS011;14362;51.902;7.626;2022-12-18T05:53:41;26.92;;;13.13;;
26774;SDS011;14362;51.902;7.626;2022-12-18T05:57:44;30.02;;;14.98;;
26774;SDS011;14362;51.902;7.626;2022-12-18T06:01:46;28.35;;;14.77;;
26774;SDS011;14362;51.902;7.626;2022-12-18T06:05:47;27.90;;;14.43;;
26774;SDS011;14362;51.902;7.626;2022-12-18T06:09:49;30.83;;;15.07;;
26774;SDS011;14362;51.902;7.626;2022-12-18T06:13:52;27.98;;;13.68;;
26774;SDS011;14362;51.902;7.626;2022-12-18T06:17:54;28.70;;;14.30;;
26774;SDS011;14362;51.902;7.626;2022-12-18T06:21:56;28.05;;;14.00;;
26774;SDS011;14362;51.902;7.626;2022-12-18T06:25:58;30.45;;;14.38;;
26774;SDS011;14362;51.902;7.626;2022-12-18T06:30:07;29.75;;;14.20;;
26774;SDS011;14362;51.902;7.626;2022-12-18T06:34:09;31.67;;;14.98;;
26774;SDS011;14362;51.902;7.626;2022-12-18T06:38:11;27.00;;;11.85;;
26774;SDS011;14362;51.902;7.626;2022-12-18T06:42:12;27.38;;;12.88;;
26774;SDS011;14362;51.902;7.626;2022-12-18T06:46:15;26.95;;;12.25;;
26774;SDS011;14362;51.902;7.626;2022-12-18T06:50:16;24.58;;;13.07;;
26774;SDS011;14362;51.902;7.626;2022-12-18T06:54:18;30.38;;;14.93;;
26774;SDS011;14362;51.902;7.626;2022-12-18T06:58:19;28.90;;;13.05;;
26774;SDS011;14362;51.902;7.626;2022-12-18T07:02:22;27.98;;;13.15;;
26774;SDS011;14362;51.902;7.626;2022-12-18T07:06:25;29.50;;;14.10;;
26774;SDS011;14362;51.902;7.626;2022-12-18T07:10:27;26.73;;;13.73;;
26774;SDS011;14362;51.902;7.626;2022-12-18T07:14:28;26.85;;;13.23;;
26774;SDS011;14362;51.902;7.626;2022-12-18T07:18:31;25.27;;;13.93;;
26774;SDS011;14362;51.902;7.626;2022-12-18T07:22:32;24.42;;;11.98;;
26774;SDS011;14362;51.902;7.626;2022-12-18T07:26:34;27.45;;;13.20;;
26774;SDS011;14362;51.902;7.626;2022-12-18T07:30:36;22.30;;;12.27;;
26774;SDS011;14362;51.902;7.626;2022-12-18T07:34:39;22.30;;;11.65;;
26774;SDS011;14362;51.902;7.626;2022-12-18T07:38:41;24.00;;;11.57;;
26774;SDS011;14362;51.902;7.626;2022-12-18T07:42:43;25.10;;;12.63;;
26774;SDS011;14362;51.902;7.626;2022-12-18T07:46:44;18.77;;;11.77;;
26774;SDS011;14362;51.902;7.626;2022-12-18T07:50:47;38.20;;;17.52;;
26774;SDS011;14362;51.902;7.626;2022-12-18T07:54:48;23.45;;;13.90;;
26774;SDS011;14362;51.902;7.626;2022-12-18T07:58:50;30.30;;;11.80;;
26774;SDS011;14362;51.902;7.626;2022-12-18T08:02:51;24.10;;;12.32;;
26774;SDS011;14362;51.902;7.626;2022-12-18T08:06:54;25.83;;;13.20;;
26774;SDS011;14362;51.902;7.626;2022-12-18T08:10:55;29.42;;;13.48;;
26774;SDS011;14362;51.902;7.626;2022-12-18T08:14:58;27.73;;;13.57;;
26774;SDS011;14362;51.902;7.626;2022-12-18T08:18:59;25.80;;;13.88;;
26774;SDS011;14362;51.902;7.626;2022-12-18T08:23:02;24.52;;;12.82;;
26774;SDS011;14362;51.902;7.626;2022-12-18T08:27:03;22.05;;;12.88;;
26774;SDS011;14362;51.902;7.626;2022-12-18T08:31:05;24.02;;;12.38;;
26774;SDS011;14362;51.902;7.626;2022-12-18T08:35:07;20.60;;;12.00;;
26774;SDS011;14362;51.902;7.626;2022-12-18T08:39:13;21.43;;;13.00;;
26774;SDS011;14362;51.902;7.626;2022-12-18T08:43:14;21.70;;;12.07;;
26774;SDS011;14362;51.902;7.626;2022-12-18T08:47:34;19.70;;;11.50;;
26774;SDS011;14362;51.902;7.626;2022-12-18T08:51:35;22.65;;;12.57;;
26774;SDS011;14362;51.902;7.626;2022-12-18T08:55:38;23.58;;;12.82;;
26774;SDS011;14362;51.902;7.626;2022-12-18T08:59:39;25.85;;;13.02;;
26774;SDS011;14362;51.902;7.626;2022-12-18T09:03:41;24.27;;;12.30;;
26774;SDS011;14362;51.902;7.626;2022-12-18T09:07:42;22.88;;;12.10;;
26774;SDS011;14362;51.902;7.626;2022-12-18T09:11:45;17.55;;;10.98;;
26774;SDS011;14362;51.902;7.626;2022-12-18T09:15:47;20.83;;;12.20;;
26774;SDS011;14362;51.902;7.626;2022-12-18T09:19:50;23.67;;;13.35;;
26774;SDS011;14362;51.902;7.626;2022-12-18T09:23:52;22.20;;;13.90;;
26774;SDS011;14362;51.902;7.626;2022-12-18T09:27:57;21.95;;;11.80;;
26774;SDS011;14362;51.902;7.626;2022-12-18T09:31:58;21.90;;;11.57;;
26774;SDS011;14362;51.902;7.626;2022-12-18T09:36:00;25.20;;;12.15;;
26774;SDS011;14362;51.902;7.626;2022-12-18T09:40:03;23.27;;;12.90;;
26774;SDS011;14362;51.902;7.626;2022-12-18T09:44:11;22.73;;;12.90;;
26774;SDS011;14362;51.902;7.626;2022-12-18T09:48:19;19.27;;;11.73;;
26774;SDS011;14362;51.902;7.626;2022-12-18T09:52:26;25.08;;;13.98;;
26774;SDS011;14362;51.902;7.626;2022-12-18T09:56:31;20.65;;;12.20;;
26774;SDS011;14362;51.902;7.626;2022-12-18T10:00:40;21.33;;;13.40;;
26774;SDS011;14362;51.902;7.626;2022-12-18T10:04:43;19.73;;;11.90;;
26774;SDS011;14362;51.902;7.626;2022-12-18T10:08:49;20.60;;;12.32;;
26774;SDS011;14362;51.902;7.626;2022-12-18T10:12:56;22.27;;;12.57;;
26774;SDS011;14362;51.902;7.626;2022-12-18T10:17:07;19.85;;;11.90;;
26774;SDS011;14362;51.902;7.626;2022-12-18T10:21:18;24.02;;;13.40;;
26774;SDS011;14362;51.902;7.626;2022-12-18T10:25:26;24.52;;;13.27;;
26774;SDS011;14362;51.902;7.626;2022-12-18T10:29:32;21.90;;;12.45;;
26774;SDS011;14362;51.902;7.626;2022-12-18T10:33:34;19.92;;;12.05;;
26774;SDS011;14362;51.902;7.626;2022-12-18T10:37:36;21.45;;;12.07;;
26774;SDS011;14362;51.902;7.626;2022-12-18T10:42:09;17.75;;;11.77;;
26774;SDS011;14362;51.902;7.626;2022-12-18T10:46:14;17.85;;;12.52;;
26774;SDS011;14362;51.902;7.626;2022-12-18T10:50:20;21.63;;;12.77;;
26774;SDS011;14362;51.902;7.626;2022-12-18T10:54:27;17.52;;;11.85;;
26774;SDS011;14362;51.902;7.626;2022-12-18T10:58:36;20.92;;;12.95;;
26774;SDS011;14362;51.902;7.626;2022-12-18T11:02:39;18.80;;;11.25;;
26774;SDS011;14362;51.902;7.626;2022-12-18T11:06:52;21.80;;;12.43;;
26774;SDS011;14362;51.902;7.626;2022-12-18T11:10:56;18.63;;;11.60;;
26774;SDS011;14362;51.902;7.626;2022-12-18T11:14:57;16.98;;;11.18;;
26774;SDS011;14362;51.902;7.626;2022-12-18T11:19:09;15.50;;;10.55;;
26774;SDS011;14362;51.902;7.626;2022-12-18T11:23:17;18.83;;;11.50;;
26774;SDS011;14362;51.902;7.626;2022-12-18T11:27:22;18.75;;;12.73;;
26774;SDS011;14362;51.902;7.626;2022-12-18T11:31:24;16.80;;;10.02;;
26774;SDS011;14362;51.902;7.626;2022-12-18T11:35:32;20.20;;;11.65;;
26774;SDS011;14362;51.902;7.626;2022-12-18T11:39:40;19.33;;;11.73;;
26774;SDS011;14362;51.902;7.626;2022-12-18T11:43:48;18.38;;;11.95;;
26774;SDS011;14362;51.902;7.626;2022-12-18T11:47:55;21.15;;;12.77;;
26774;SDS011;14362;51.902;7.626;2022-12-18T11:52:00;18.52;;;11.90;;
26774;SDS011;14362;51.902;7.626;2022-12-18T11:56:14;19.73;;;12.57;;
26774;SDS011;14362;51.902;7.626;2022-12-18T12:00:27;25.33;;;13.32;;
26774;SDS011;14362;51.902;7.626;2022-12-18T12:04:33;24.23;;;13.57;;
26774;SDS011;14362;51.902;7.626;2022-12-18T12:08:48;23.73;;;13.30;;
26774;SDS011;14362;51.902;7.626;2022-12-18T12:13:04;24.08;;;12.70;;
26774;SDS011;14362;51.902;7.626;2022-12-18T12:17:19;22.63;;;11.85;;
26774;SDS011;14362;51.902;7.626;2022-12-18T12:21:33;22.30;;;13.20;;
26774;SDS011;14362;51.902;7.626;2022-12-18T12:25:41;19.45;;;12.43;;
26774;SDS011;14362;51.902;7.626;2022-12-18T12:29:50;22.08;;;13.63;;
26774;SDS011;14362;51.902;7.626;2022-12-18T12:34:04;21.33;;;12.57;;
26774;SDS011;14362;51.902;7.626;2022-12-18T12:38:13;18.85;;;13.30;;
26774;SDS011;14362;51.902;7.626;2022-12-18T12:42:20;17.70;;;12.68;;
26774;SDS011;14362;51.902;7.626;2022-12-18T12:46:49;21.00;;;13.60;;
26774;SDS011;14362;51.902;7.626;2022-12-18T12:50:55;22.00;;;13.25;;
26774;SDS011;14362;51.902;7.626;2022-12-18T12:54:58;21.63;;;13.45;;
26774;SDS011;14362;51.902;7.626;2022-12-18T12:59:04;19.48;;;12.77;;
26774;SDS011;14362;51.902;7.626;2022-12-18T13:03:18;19.80;;;13.07;;
26774;SDS011;14362;51.902;7.626;2022-12-18T13:07:32;21.95;;;12.98;;
26774;SDS011;14362;51.902;7.626;2022-12-18T13:11:41;24.13;;;12.95;;
26774;SDS011;14362;51.902;7.626;2022-12-18T13:16:03;20.25;;;12.13;;
26774;SDS011;14362;51.902;7.626;2022-12-18T13:20:11;21.35;;;13.40;;
26774;SDS011;14362;51.902;7.626;2022-12-18T13:24:15;19.45;;;12.30;;
26774;SDS011;14362;51.902;7.626;2022-12-18T13:32:54;21.17;;;12.75;;
26774;SDS011;14362;51.902;7.626;2022-12-18T13:37:45;19.05;;;12.57;;
26774;SDS011;14362;51.902;7.626;2022-12-18T13:41:53;19.40;;;11.93;;
26774;SDS011;14362;51.902;7.626;2022-12-18T13:46:45;22.48;;;12.70;;
26774;SDS011;14362;51.902;7.626;2022-12-18T13:50:48;17.23;;;11.00;;
26774;SDS011;14362;51.902;7.626;2022-12-18T13:54:53;18.92;;;11.77;;
26774;SDS011;14362;51.902;7.626;2022-12-18T13:59:11;19.75;;;11.10;;
26774;SDS011;14362;51.902;7.626;2022-12-18T14:03:18;18.27;;;11.50;;
26774;SDS011;14362;51.902;7.626;2022-12-18T14:07:22;18.73;;;11.88;;
26774;SDS011;14362;51.902;7.626;2022-12-18T14:11:26;18.33;;;10.93;;
26774;SDS011;14362;51.902;7.626;2022-12-18T14:15:29;17.75;;;12.05;;
26774;SDS011;14362;51.902;7.626;2022-12-18T14:19:35;17.45;;;11.50;;
26774;SDS011;14362;51.902;7.626;2022-12-18T14:23:37;17.63;;;10.82;;
26774;SDS011;14362;51.902;7.626;2022-12-18T14:27:41;16.63;;;11.25;;
26774;SDS011;14362;51.902;7.626;2022-12-18T14:31:44;19.05;;;11.93;;
26774;SDS011;14362;51.902;7.626;2022-12-18T14:35:53;16.08;;;10.68;;
26774;SDS011;14362;51.902;7.626;2022-12-18T14:39:57;18.30;;;11.30;;
26774;SDS011;14362;51.902;7.626;2022-12-18T14:44:05;21.52;;;11.15;;
26774;SDS011;14362;51.902;7.626;2022-12-18T14:48:08;16.17;;;10.60;;
26774;SDS011;14362;51.902;7.626;2022-12-18T14:52:20;17.48;;;11.02;;
26774;SDS011;14362;51.902;7.626;2022-12-18T14:56:27;15.45;;;10.65;;
26774;SDS011;14362;51.902;7.626;2022-12-18T15:00:30;15.52;;;9.60;;
26774;SDS011;14362;51.902;7.626;2022-12-18T15:04:32;14.20;;;10.07;;
26774;SDS011;14362;51.902;7.626;2022-12-18T15:08:37;13.65;;;8.60;;
26774;SDS011;14362;51.902;7.626;2022-12-18T15:12:39;17.35;;;8.80;;
26774;SDS011;14362;51.902;7.626;2022-12-18T15:16:42;13.68;;;8.55;;
26774;SDS011;14362;51.902;7.626;2022-12-18T15:20:44;13.65;;;8.82;;
26774;SDS011;14362;51.902;7.626;2022-12-18T15:24:49;14.38;;;9.63;;
26774;SDS011;14362;51.902;7.626;2022-12-18T15:28:51;14.32;;;9.23;;
26774;SDS011;14362;51.902;7.626;2022-12-18T15:37:22;17.23;;;10.77;;
26774;SDS011;14362;51.902;7.626;2022-12-18T15:41:25;15.63;;;9.20;;
26774;SDS011;14362;51.902;7.626;2022-12-18T15:45:27;15.93;;;9.57;;
26774;SDS011;14362;51.902;7.626;2022-12-18T15:49:29;14.35;;;10.00;;
26774;SDS011;14362;51.902;7.626;2022-12-18T15:53:31;16.90;;;10.05;;
26774;SDS011;14362;51.902;7.626;2022-12-18T15:57:35;16.25;;;9.88;;
26774;SDS011;14362;51.902;7.626;2022-12-18T16:01:36;14.20;;;8.88;;
26774;SDS011;14362;51.902;7.626;2022-12-18T16:05:37;16.88;;;9.45;;
26774;SDS011;14362;51.902;7.626;2022-12-18T16:09:39;14.93;;;8.88;;
26774;SDS011;14362;51.902;7.626;2022-12-18T16:13:42;13.27;;;8.60;;
26774;SDS011;14362;51.902;7.626;2022-12-18T16:17:43;12.93;;;9.02;;
26774;SDS011;14362;51.902;7.626;2022-12-18T16:21:45;14.32;;;8.80;;
26774;SDS011;14362;51.902;7.626;2022-12-18T16:25:48;12.38;;;9.27;;
26774;SDS011;14362;51.902;7.626;2022-12-18T16:29:50;14.23;;;9.07;;
26774;SDS011;14362;51.902;7.626;2022-12-18T16:38:12;16.85;;;10.18;;
26774;SDS011;14362;51.902;7.626;2022-12-18T16:42:15;14.77;;;10.27;;
26774;SDS011;14362;51.902;7.626;2022-12-18T16:46:20;13.80;;;9.55;;
26774;SDS011;14362;51.902;7.626;2022-12-18T16:50:21;14.18;;;9.15;;
26774;SDS011;14362;51.902;7.626;2022-12-18T16:54:23;15.05;;;10.00;;
26774;SDS011;14362;51.902;7.626;2022-12-18T16:58:24;14.18;;;9.45;;
26774;SDS011;14362;51.902;7.626;2022-12-18T17:02:27;12.95;;;9.55;;
26774;SDS011;14362;51.902;7.626;2022-12-18T17:06:29;14.63;;;9.98;;
26774;SDS011;14362;51.902;7.626;2022-12-18T17:10:33;15.60;;;9.80;;
26774;SDS011;14362;51.902;7.626;2022-12-18T17:14:36;15.45;;;9.35;;
26774;SDS011;14362;51.902;7.626;2022-12-18T17:18:38;15.95;;;10.35;;
26774;SDS011;14362;51.902;7.626;2022-12-18T17:22:40;17.38;;;9.70;;
26774;SDS011;14362;51.902;7.626;2022-12-18T17:26:41;14.77;;;9.00;;
26774;SDS011;14362;51.902;7.626;2022-12-18T17:30:43;18.65;;;10.65;;
26774;SDS011;14362;51.902;7.626;2022-12-18T17:34:45;17.55;;;10.00;;
26774;SDS011;14362;51.902;7.626;2022-12-18T17:38:49;16.48;;;9.80;;
26774;SDS011;14362;51.902;7.626;2022-12-18T17:42:51;14.13;;;9.13;;
26774;SDS011;14362;51.902;7.626;2022-12-18T17:46:52;14.80;;;9.43;;
26774;SDS011;14362;51.902;7.626;2022-12-18T17:50:55;17.35;;;9.18;;
26774;SDS011;14362;51.902;7.626;2022-12-18T17:55:01;17.10;;;9.65;;
26774;SDS011;14362;51.902;7.626;2022-12-18T17:59:02;24.88;;;13.10;;
26774;SDS011;14362;51.902;7.626;2022-12-18T18:03:03;19.55;;;10.02;;
26774;SDS011;14362;51.902;7.626;2022-12-18T18:07:06;26.30;;;13.95;;
26774;SDS011;14362;51.902;7.626;2022-12-18T18:11:10;38.38;;;17.08;;
26774;SDS011;14362;51.902;7.626;2022-12-18T18:15:30;27.73;;;14.43;;
26774;SDS011;14362;51.902;7.626;2022-12-18T18:19:31;22.17;;;12.05;;
26774;SDS011;14362;51.902;7.626;2022-12-18T18:23:34;50.38;;;18.48;;
26774;SDS011;14362;51.902;7.626;2022-12-18T18:27:36;24.40;;;12.40;;
26774;SDS011;14362;51.902;7.626;2022-12-18T18:31:38;27.10;;;14.88;;
26774;SDS011;14362;51.902;7.626;2022-12-18T18:35:40;21.48;;;12.52;;
26774;SDS011;14362;51.902;7.626;2022-12-18T18:39:43;20.50;;;12.10;;
26774;SDS011;14362;51.902;7.626;2022-12-18T18:43:45;27.40;;;13.35;;
26774;SDS011;14362;51.902;7.626;2022-12-18T18:47:46;41.65;;;18.63;;
26774;SDS011;14362;51.902;7.626;2022-12-18T18:51:48;27.45;;;16.17;;
26774;SDS011;14362;51.902;7.626;2022-12-18T18:55:51;18.38;;;11.55;;
26774;SDS011;14362;51.902;7.626;2022-12-18T18:59:53;21.50;;;12.45;;
26774;SDS011;14362;51.902;7.626;2022-12-18T19:03:54;20.00;;;12.70;;
26774;SDS011;14362;51.902;7.626;2022-12-18T19:07:55;21.20;;;12.85;;
26774;SDS011;14362;51.902;7.626;2022-12-18T19:11:58;23.45;;;14.48;;
26774;SDS011;14362;51.902;7.626;2022-12-18T19:16:17;25.45;;;16.00;;
26774;SDS011;14362;51.902;7.626;2022-12-18T19:20:19;20.35;;;13.60;;
26774;SDS011;14362;51.902;7.626;2022-12-18T19:24:20;22.35;;;13.35;;
26774;SDS011;14362;51.902;7.626;2022-12-18T19:28:23;18.33;;;12.73;;
26774;SDS011;14362;51.902;7.626;2022-12-18T19:32:27;19.67;;;12.30;;
26774;SDS011;14362;51.902;7.626;2022-12-18T19:36:29;22.38;;;12.98;;
26774;SDS011;14362;51.902;7.626;2022-12-18T19:40:31;21.10;;;13.27;;
26774;SDS011;14362;51.902;7.626;2022-12-18T19:44:34;23.27;;;14.48;;
26774;SDS011;14362;51.902;7.626;2022-12-18T19:48:35;24.95;;;15.60;;
26774;SDS011;14362;51.902;7.626;2022-12-18T19:52:36;26.27;;;14.63;;
26774;SDS011;14362;51.902;7.626;2022-12-18T19:56:38;25.88;;;15.30;;
26774;SDS011;14362;51.902;7.626;2022-12-18T20:00:41;25.80;;;15.07;;
26774;SDS011;14362;51.902;7.626;2022-12-18T20:04:42;27.05;;;15.10;;
26774;SDS011;14362;51.902;7.626;2022-12-18T20:08:44;27.88;;;15.50;;
26774;SDS011;14362;51.902;7.626;2022-12-18T20:12:46;25.92;;;14.77;;
26774;SDS011;14362;51.902;7.626;2022-12-18T20:16:49;22.83;;;14.02;;
26774;SDS011;14362;51.902;7.626;2022-12-18T20:20:51;28.48;;;15.77;;
26774;SDS011;14362;51.902;7.626;2022-12-18T20:24:52;24.35;;;14.63;;
26774;SDS011;14362;51.902;7.626;2022-12-18T20:28:53;25.70;;;15.43;;
26774;SDS011;14362;51.902;7.626;2022-12-18T20:32:57;25.88;;;15.40;;
26774;SDS011;14362;51.902;7.626;2022-12-18T20:36:58;31.35;;;17.02;;
26774;SDS011;14362;51.902;7.626;2022-12-18T20:41:00;28.63;;;16.52;;
26774;SDS011;14362;51.902;7.626;2022-12-18T20:45:02;32.08;;;18.75;;
26774;SDS011;14362;51.902;7.626;2022-12-18T20:49:05;28.15;;;19.10;;
26774;SDS011;14362;51.902;7.626;2022-12-18T20:53:07;32.00;;;18.45;;
26774;SDS011;14362;51.902;7.626;2022-12-18T20:57:08;31.80;;;19.20;;
26774;SDS011;14362;51.902;7.626;2022-12-18T21:01:10;31.65;;;18.15;;
26774;SDS011;14362;51.902;7.626;2022-12-18T21:05:14;34.05;;;17.42;;
26774;SDS011;14362;51.902;7.626;2022-12-18T21:09:16;33.22;;;18.30;;
26774;SDS011;14362;51.902;7.626;2022-12-18T21:13:17;31.85;;;18.10;;
26774;SDS011;14362;51.902;7.626;2022-12-18T21:17:19;34.70;;;19.23;;
26774;SDS011;14362;51.902;7.626;2022-12-18T21:21:22;34.08;;;18.75;;
26774;SDS011;14362;51.902;7.626;2022-12-18T21:25:23;36.42;;;19.48;;
26774;SDS011;14362;51.902;7.626;2022-12-18T21:29:25;35.47;;;19.77;;
26774;SDS011;14362;51.902;7.626;2022-12-18T21:33:26;37.65;;;19.67;;
26774;SDS011;14362;51.902;7.626;2022-12-18T21:37:29;37.13;;;19.63;;
26774;SDS011;14362;51.902;7.626;2022-12-18T21:41:30;34.40;;;19.50;;
26774;SDS011;14362;51.902;7.626;2022-12-18T21:45:49;38.97;;;19.90;;
26774;SDS011;14362;51.902;7.626;2022-12-18T21:49:51;36.67;;;19.52;;
26774;SDS011;14362;51.902;7.626;2022-12-18T21:53:54;37.30;;;20.08;;
26774;SDS011;14362;51.902;7.626;2022-12-18T21:57:55;37.38;;;20.83;;
26774;SDS011;14362;51.902;7.626;2022-12-18T22:01:57;39.42;;;20.60;;
26774;SDS011;14362;51.902;7.626;2022-12-18T22:06:00;37.47;;;20.27;;
26774;SDS011;14362;51.902;7.626;2022-12-18T22:10:02;34.80;;;18.80;;
26774;SDS011;14362;51.902;7.626;2022-12-18T22:14:05;37.47;;;20.05;;
26774;SDS011;14362;51.902;7.626;2022-12-18T22:18:06;35.20;;;18.77;;
26774;SDS011;14362;51.902;7.626;2022-12-18T22:22:08;37.17;;;18.95;;
26774;SDS011;14362;51.902;7.626;2022-12-18T22:26:10;38.17;;;19.60;;
26774;SDS011;14362;51.902;7.626;2022-12-18T22:30:12;35.55;;;19.92;;
26774;SDS011;14362;51.902;7.626;2022-12-18T22:34:14;39.33;;;19.92;;
26774;SDS011;14362;51.902;7.626;2022-12-18T22:38:16;38.30;;;20.08;;
26774;SDS011;14362;51.902;7.626;2022-12-18T22:42:19;37.97;;;19.70;;
26774;SDS011;14362;51.902;7.626;2022-12-18T22:46:20;38.85;;;19.27;;
26774;SDS011;14362;51.902;7.626;2022-12-18T22:50:23;38.08;;;19.88;;
26774;SDS011;14362;51.902;7.626;2022-12-18T22:54:24;34.45;;;18.55;;
26774;SDS011;14362;51.902;7.626;2022-12-18T22:58:27;39.28;;;20.40;;
26774;SDS011;14362;51.902;7.626;2022-12-18T23:02:28;34.33;;;19.95;;
26774;SDS011;14362;51.902;7.626;2022-12-18T23:06:29;41.28;;;20.00;;
26774;SDS011;14362;51.902;7.626;2022-12-18T23:10:31;38.45;;;20.95;;
26774;SDS011;14362;51.902;7.626;2022-12-18T23:14:34;38.58;;;19.90;;
26774;SDS011;14362;51.902;7.626;2022-12-18T23:18:35;40.35;;;20.42;;
26774;SDS011;14362;51.902;7.626;2022-12-18T23:22:37;39.80;;;20.17;;
26774;SDS011;14362;51.902;7.626;2022-12-18T23:26:38;38.83;;;20.10;;
26774;SDS011;14362;51.902;7.626;2022-12-18T23:30:41;44.25;;;20.20;;
26774;SDS011;14362;51.902;7.626;2022-12-18T23:34:42;38.60;;;19.88;;
26774;SDS011;14362;51.902;7.626;2022-12-18T23:38:46;45.42;;;19.95;;
26774;SDS011;14362;51.902;7.626;2022-12-18T23:42:48;40.50;;;19.70;;
26774;SDS011;14362;51.902;7.626;2022-12-18T23:46:51;37.05;;;19.80;;
26774;SDS011;14362;51.902;7.626;2022-12-18T23:50:52;46.25;;;21.83;;
26774;SDS011;14362;51.902;7.626;2022-12-18T23:54:54;40.67;;;20.83;;
26774;SDS011;14362;51.902;7.626;2022-12-18T23:58:56;37.92;;;19.88;;
